createdAt,value
2018-09-16T00:00:34.439Z,101894.50
2018-09-16T00:03:02.716Z,101901.84
2018-09-16T00:05:30.989Z,101901.80
2018-09-16T00:07:59.308Z,101893.59
2018-09-16T00:10:28.347Z,101886.56
2018-09-16T00:12:56.641Z,101888.69
2018-09-16T00:15:24.945Z,101890.02
2018-09-16T00:17:53.243Z,101888.63
2018-09-16T00:20:21.502Z,101885.62
2018-09-16T00:22:49.804Z,101885.94
2018-09-16T00:25:18.051Z,101882.95
2018-09-16T00:27:46.308Z,101879.47
2018-09-16T00:30:15.312Z,101882.80
2018-09-16T00:32:43.759Z,101876.22
2018-09-16T00:35:12.645Z,101882.62
2018-09-16T00:37:40.922Z,101886.45
2018-09-16T00:40:09.200Z,101889.86
2018-09-16T00:42:37.460Z,101883.39
2018-09-16T00:45:06.041Z,101885.50
2018-09-16T00:47:34.321Z,101884.67
2018-09-16T00:50:03.255Z,101880.32
2018-09-16T00:52:31.565Z,101875.24
2018-09-16T00:54:59.869Z,101877.36
2018-09-16T00:57:28.137Z,101879.48
2018-09-16T00:59:56.410Z,101872.14
2018-09-16T01:02:24.636Z,101867.41
2018-09-16T01:04:52.892Z,101862.78
2018-09-16T01:07:21.116Z,101861.47
2018-09-16T01:09:49.381Z,101857.08
2018-09-16T01:12:17.593Z,101857.45
2018-09-16T01:14:45.832Z,101862.11
2018-09-16T01:17:14.044Z,101858.98
2018-09-16T01:19:43.840Z,101852.58
2018-09-16T01:22:12.081Z,101852.95
2018-09-16T01:24:40.301Z,101846.08
2018-09-16T01:27:08.537Z,101845.66
2018-09-16T01:29:36.762Z,101851.59
2018-09-16T01:32:05.083Z,101845.58
2018-09-16T01:34:33.301Z,101843.04
2018-09-16T01:37:05.721Z,101843.42
2018-09-16T01:39:34.112Z,101841.61
2018-09-16T01:42:02.377Z,101837.33
2018-09-16T01:44:30.609Z,101841.52
2018-09-16T01:46:58.861Z,101837.59
2018-09-16T01:49:27.084Z,101834.56
2018-09-16T01:51:55.325Z,101831.95
2018-09-16T01:54:23.548Z,101835.35
2018-09-16T01:56:51.782Z,101829.72
2018-09-16T01:59:20.040Z,101828.88
2018-09-16T02:01:48.297Z,101819.34
2018-09-16T02:04:16.533Z,101820.14
2018-09-16T02:06:44.770Z,101813.25
2018-09-16T02:09:12.985Z,101813.25
2018-09-16T02:11:41.246Z,101815.78
2018-09-16T02:14:09.480Z,101822.59
2018-09-16T02:16:37.752Z,101820.39
2018-09-16T02:19:06.040Z,101818.44
2018-09-16T02:21:34.269Z,101823.53
2018-09-16T02:24:02.512Z,101819.14
2018-09-16T02:26:30.784Z,101816.41
2018-09-16T02:28:59.088Z,101812.00
2018-09-16T02:31:27.321Z,101805.48
2018-09-16T02:33:55.581Z,101804.28
2018-09-16T02:36:23.793Z,101797.91
2018-09-16T02:38:52.065Z,101803.09
2018-09-16T02:41:20.285Z,101797.08
2018-09-16T02:43:48.569Z,101790.20
2018-09-16T02:46:16.788Z,101790.66
2018-09-16T02:48:45.018Z,101780.28
2018-09-16T02:51:13.261Z,101782.03
2018-09-16T02:53:41.496Z,101778.63
2018-09-16T02:56:09.718Z,101778.26
2018-09-16T02:58:37.949Z,101778.67
2018-09-16T03:01:06.192Z,101782.45
2018-09-16T03:03:34.545Z,101776.84
2018-09-16T03:06:02.754Z,101778.09
2018-09-16T03:08:30.998Z,101780.48
2018-09-16T03:10:59.230Z,101776.17
2018-09-16T03:13:27.464Z,101770.95
2018-09-16T03:15:55.686Z,101769.16
2018-09-16T03:18:23.929Z,101768.25
2018-09-16T03:20:52.136Z,101767.46
2018-09-16T03:23:20.354Z,101766.02
2018-09-16T03:25:48.568Z,101765.55
2018-09-16T03:28:16.805Z,101765.47
2018-09-16T03:30:45.049Z,101770.93
2018-09-16T03:33:13.253Z,101770.97
2018-09-16T03:35:41.480Z,101773.30
2018-09-16T03:38:09.685Z,101769.12
2018-09-16T03:40:37.943Z,101768.28
2018-09-16T03:43:06.320Z,101764.48
2018-09-16T03:45:34.557Z,101765.81
2018-09-16T03:48:02.801Z,101764.02
2018-09-16T03:50:31.041Z,101766.02
2018-09-16T03:52:59.249Z,101765.55
2018-09-16T03:55:27.475Z,101772.59
2018-09-16T03:57:55.680Z,101773.52
2018-09-16T04:00:23.950Z,101763.66
2018-09-16T04:02:52.188Z,101768.38
2018-09-16T04:05:20.784Z,101772.28
2018-09-16T04:07:49.956Z,101767.55
2018-09-16T04:10:18.233Z,101768.09
2018-09-16T04:12:46.603Z,101766.77
2018-09-16T04:15:14.880Z,101762.37
2018-09-16T04:17:43.115Z,101762.32
2018-09-16T04:20:11.344Z,101763.11
2018-09-16T04:22:39.601Z,101763.16
2018-09-16T04:25:08.143Z,101767.42
2018-09-16T04:27:36.369Z,101769.58
2018-09-16T04:30:04.953Z,101764.84
2018-09-16T04:32:33.217Z,101763.44
2018-09-16T04:35:01.449Z,101769.59
2018-09-16T04:37:29.690Z,101772.53
2018-09-16T04:39:57.925Z,101773.81
2018-09-16T04:42:26.185Z,101773.27
2018-09-16T04:44:55.467Z,101768.91
2018-09-16T04:47:23.697Z,101770.14
2018-09-16T04:49:51.917Z,101765.87
2018-09-16T04:52:20.190Z,101771.80
2018-09-16T04:54:48.417Z,101776.93
2018-09-16T04:57:16.660Z,101770.59
2018-09-16T04:59:44.993Z,101737.22
2018-09-16T05:02:13.230Z,101780.66
2018-09-16T05:04:41.506Z,101774.83
2018-09-16T05:07:09.816Z,101783.95
2018-09-16T05:09:38.101Z,101779.72
2018-09-16T05:12:06.715Z,101778.11
2018-09-16T05:14:35.018Z,101781.64
2018-09-16T05:17:03.322Z,101785.87
2018-09-16T05:19:31.595Z,101785.55
2018-09-16T05:21:59.912Z,101784.30
2018-09-16T05:24:28.204Z,101788.20
2018-09-16T05:26:56.568Z,101783.84
2018-09-16T05:29:24.838Z,101792.29
2018-09-16T05:31:53.136Z,101793.75
2018-09-16T05:34:21.427Z,101792.70
2018-09-16T05:36:49.829Z,101793.56
2018-09-16T05:39:18.139Z,101800.54
2018-09-16T05:41:46.494Z,101802.06
2018-09-16T05:44:14.829Z,101799.98
2018-09-16T05:46:43.122Z,101800.00
2018-09-16T05:49:11.427Z,101804.39
2018-09-16T05:51:39.735Z,101797.20
2018-09-16T05:54:08.030Z,101799.89
2018-09-16T05:56:36.338Z,101796.58
2018-09-16T05:59:04.680Z,101799.78
2018-09-16T06:01:32.984Z,101800.28
2018-09-16T06:04:01.284Z,101805.88
2018-09-16T06:06:29.589Z,101804.30
2018-09-16T06:08:57.894Z,101806.37
2018-09-16T06:11:26.189Z,101813.80
2018-09-16T06:13:54.789Z,101805.50
2018-09-16T06:16:23.086Z,101805.31
2018-09-16T06:18:51.397Z,101802.86
2018-09-16T06:21:19.683Z,101805.20
2018-09-16T06:23:47.999Z,101798.08
2018-09-16T06:26:16.357Z,101804.27
2018-09-16T06:28:44.659Z,101795.82
2018-09-16T06:31:12.941Z,101800.72
2018-09-16T06:33:41.277Z,101793.06
2018-09-16T06:36:09.524Z,101792.23
2018-09-16T06:38:37.805Z,101792.68
2018-09-16T06:41:06.281Z,101790.63
2018-09-16T06:43:34.553Z,101789.52
2018-09-16T06:46:02.941Z,101791.02
2018-09-16T06:48:31.229Z,101787.36
2018-09-16T06:50:59.592Z,101789.73
2018-09-16T06:53:27.881Z,101781.75
2018-09-16T06:55:56.201Z,101787.52
2018-09-16T06:58:24.474Z,101776.90
2018-09-16T07:00:52.853Z,101780.47
2018-09-16T07:03:21.125Z,101780.52
2018-09-16T07:05:49.592Z,101785.72
2018-09-16T07:08:17.943Z,101780.18
2018-09-16T07:10:46.260Z,101781.97
2018-09-16T07:13:14.545Z,101782.78
2018-09-16T07:15:42.840Z,101780.16
2018-09-16T07:18:11.133Z,101783.66
2018-09-16T07:20:39.461Z,101788.43
2018-09-16T07:23:07.742Z,101782.84
2018-09-16T07:25:36.038Z,101791.52
2018-09-16T07:28:04.329Z,101789.84
2018-09-16T07:30:32.659Z,101781.24
2018-09-16T07:33:00.937Z,101781.81
2018-09-16T07:35:29.237Z,101775.86
2018-09-16T07:37:57.545Z,101773.25
2018-09-16T07:40:25.813Z,101769.84
2018-09-16T07:42:54.142Z,101761.69
2018-09-16T07:45:22.421Z,101766.38
2018-09-16T07:47:50.742Z,101761.31
2018-09-16T07:50:19.115Z,101758.38
2018-09-16T07:52:47.550Z,101758.87
2018-09-16T07:55:15.774Z,101754.15
2018-09-16T07:57:44.079Z,101752.88
2018-09-16T08:00:12.399Z,101756.78
2018-09-16T08:02:40.714Z,101748.63
2018-09-16T08:05:09.074Z,101746.97
2018-09-16T08:07:37.368Z,101743.16
2018-09-16T08:10:05.689Z,101744.95
2018-09-16T08:12:34.000Z,101743.67
2018-09-16T08:15:02.269Z,101737.66
2018-09-16T08:17:30.573Z,101741.98
2018-09-16T08:19:58.849Z,101745.89
2018-09-16T08:22:27.175Z,101751.55
2018-09-16T08:24:55.704Z,101749.41
2018-09-16T08:27:23.995Z,101757.61
2018-09-16T08:29:52.286Z,101751.16
2018-09-16T08:32:20.593Z,101760.69
2018-09-16T08:34:48.857Z,101757.66
2018-09-16T08:37:17.151Z,101758.52
2018-09-16T08:39:45.488Z,101754.61
2018-09-16T08:42:13.782Z,101756.34
2018-09-16T08:44:42.077Z,101760.19
2018-09-16T08:47:10.368Z,101759.33
2018-09-16T08:49:38.663Z,101751.09
2018-09-16T08:52:07.021Z,101758.82
2018-09-16T08:54:35.325Z,101757.94
2018-09-16T08:57:03.642Z,101755.39
2018-09-16T08:59:32.000Z,101762.32
2018-09-16T09:02:00.322Z,101762.24
2018-09-16T09:04:28.656Z,101765.63
2018-09-16T09:06:56.914Z,101760.84
2018-09-16T09:09:25.223Z,101762.58
2018-09-16T09:11:53.538Z,101760.88
2018-09-16T09:14:21.909Z,101755.20
2018-09-16T09:16:50.158Z,101759.44
2018-09-16T09:19:18.474Z,101754.22
2018-09-16T09:21:46.709Z,101746.39
2018-09-16T09:24:14.957Z,101745.80
2018-09-16T09:26:43.190Z,101751.75
2018-09-16T09:29:11.457Z,101749.10
2018-09-16T09:31:39.705Z,101751.56
2018-09-16T09:34:07.960Z,101740.62
2018-09-16T09:36:36.205Z,101737.47
2018-09-16T09:39:06.525Z,101739.63
2018-09-16T09:41:34.764Z,101729.13
2018-09-16T09:44:03.053Z,101732.86
2018-09-16T09:46:31.300Z,101728.94
2018-09-16T09:48:59.528Z,101721.28
2018-09-16T09:51:27.792Z,101719.97
2018-09-16T09:53:56.049Z,101715.20
2018-09-16T09:56:24.297Z,101707.84
2018-09-16T09:58:52.599Z,101709.05
2018-09-16T10:01:21.804Z,101709.58
2018-09-16T10:03:50.056Z,101699.48
2018-09-16T10:06:18.329Z,101690.36
2018-09-16T10:08:46.571Z,101694.77
2018-09-16T10:11:14.844Z,101689.45
2018-09-16T10:13:43.069Z,101686.28
2018-09-16T10:16:11.343Z,101690.47
2018-09-16T10:18:39.613Z,101687.48
2018-09-16T10:21:07.896Z,101682.73
2018-09-16T10:23:36.133Z,101688.78
2018-09-16T10:26:04.393Z,101679.08
2018-09-16T10:28:32.625Z,101682.91
2018-09-16T10:31:00.897Z,101684.13
2018-09-16T10:33:29.141Z,101682.75
2018-09-16T10:35:57.408Z,101686.07
2018-09-16T10:38:25.656Z,101685.89
2018-09-16T10:40:53.896Z,101683.20
2018-09-16T10:43:22.131Z,101685.20
2018-09-16T10:45:50.397Z,101674.37
2018-09-16T10:48:18.665Z,101672.45
2018-09-16T10:50:46.896Z,101671.36
2018-09-16T10:53:16.260Z,101670.41
2018-09-16T10:55:44.507Z,101673.86
2018-09-16T10:58:13.033Z,101672.80
2018-09-16T11:00:41.293Z,101668.14
2018-09-16T11:03:09.540Z,101662.12
2018-09-16T11:05:37.792Z,101664.21
2018-09-16T11:08:06.152Z,101669.00
2018-09-16T11:10:34.348Z,101666.05
2018-09-16T11:13:02.798Z,101666.91
2018-09-16T11:15:31.041Z,101662.91
2018-09-16T11:17:59.297Z,101654.91
2018-09-16T11:20:27.537Z,101647.28
2018-09-16T11:22:55.792Z,101649.27
2018-09-16T11:25:24.025Z,101644.39
2018-09-16T11:27:52.313Z,101628.81
2018-09-16T11:30:20.536Z,101635.49
2018-09-16T11:32:48.799Z,101636.47
2018-09-16T11:35:17.025Z,101632.75
2018-09-16T11:37:45.720Z,101626.16
2018-09-16T11:40:13.981Z,101628.97
2018-09-16T11:42:42.248Z,101620.05
2018-09-16T11:45:10.490Z,101618.24
2018-09-16T11:47:38.792Z,101629.44
2018-09-16T11:50:07.033Z,101623.05
2018-09-16T11:52:35.265Z,101626.48
2018-09-16T11:55:03.549Z,101611.09
2018-09-16T11:57:31.784Z,101609.79
2018-09-16T12:00:00.080Z,101603.63
2018-09-16T12:02:28.349Z,101590.52
2018-09-16T12:04:56.609Z,101595.74
2018-09-16T12:07:24.853Z,101601.98
2018-09-16T12:09:53.153Z,101591.10
2018-09-16T12:12:21.385Z,101598.70
2018-09-16T12:14:49.636Z,101589.16
2018-09-16T12:17:17.864Z,101584.89
2018-09-16T12:19:46.149Z,101583.33
2018-09-16T12:22:14.419Z,101577.99
2018-09-16T12:24:42.680Z,101568.53
2018-09-16T12:27:10.926Z,101564.67
2018-09-16T12:29:39.184Z,101567.20
2018-09-16T12:32:07.413Z,101564.43
2018-09-16T12:34:35.940Z,101566.64
2018-09-16T12:37:04.192Z,101566.27
2018-09-16T12:39:32.440Z,101555.61
2018-09-16T12:42:00.694Z,101554.18
2018-09-16T12:44:28.955Z,101552.90
2018-09-16T12:46:57.188Z,101552.68
2018-09-16T12:49:25.458Z,101548.07
2018-09-16T12:51:53.697Z,101551.27
2018-09-16T12:54:21.949Z,101549.23
2018-09-16T12:56:50.308Z,101542.66
2018-09-16T12:59:22.353Z,101547.66
2018-09-16T13:01:50.642Z,101543.97
2018-09-16T13:04:18.932Z,101532.30
2018-09-16T13:06:47.165Z,101539.09
2018-09-16T13:09:15.397Z,101533.77
2018-09-16T13:11:43.637Z,101529.81
2018-09-16T13:14:11.862Z,101527.91
2018-09-16T13:16:40.117Z,101519.08
2018-09-16T13:19:08.362Z,101513.00
2018-09-16T13:21:36.629Z,101513.44
2018-09-16T13:24:04.860Z,101518.34
2018-09-16T13:26:33.125Z,101513.56
2018-09-16T13:29:01.363Z,101516.56
2018-09-16T13:31:29.647Z,101514.27
2018-09-16T13:33:58.209Z,101516.72
2018-09-16T13:36:26.478Z,101506.67
2018-09-16T13:38:54.833Z,101504.41
2018-09-16T13:41:23.106Z,101501.03
2018-09-16T13:43:51.336Z,101507.89
2018-09-16T13:46:19.616Z,101505.66
2018-09-16T13:48:47.861Z,101496.39
2018-09-16T13:51:16.138Z,101496.55
2018-09-16T13:53:45.014Z,101496.30
2018-09-16T13:56:13.236Z,101496.81
2018-09-16T13:58:41.481Z,101487.44
2018-09-16T14:01:09.736Z,101482.91
2018-09-16T14:03:37.982Z,101487.01
2018-09-16T14:06:06.254Z,101478.17
2018-09-16T14:08:34.500Z,101474.73
2018-09-16T14:11:02.728Z,101470.44
2018-09-16T14:13:30.976Z,101474.49
2018-09-16T14:15:59.203Z,101469.72
2018-09-16T14:18:27.480Z,101472.12
2018-09-16T14:20:55.836Z,101466.95
2018-09-16T14:23:24.061Z,101466.23
2018-09-16T14:25:52.589Z,101459.73
2018-09-16T14:28:23.039Z,101463.08
2018-09-16T14:30:51.249Z,101461.61
2018-09-16T14:33:19.496Z,101456.26
2018-09-16T14:35:47.724Z,101457.40
2018-09-16T14:38:15.973Z,101464.82
2018-09-16T14:40:44.257Z,101453.30
2018-09-16T14:43:12.613Z,101454.72
2018-09-16T14:45:40.830Z,101455.78
2018-09-16T14:48:09.088Z,101452.33
2018-09-16T14:50:37.353Z,101444.05
2018-09-16T14:53:05.625Z,101443.94
2018-09-16T14:55:33.878Z,101442.42
2018-09-16T14:58:02.101Z,101441.91
2018-09-16T15:00:30.390Z,101445.32
2018-09-16T15:02:59.744Z,101438.13
2018-09-16T15:05:27.992Z,101432.00
2018-09-16T15:07:56.233Z,101425.95
2018-09-16T15:10:24.484Z,101427.73
2018-09-16T15:12:53.673Z,101419.20
2018-09-16T15:15:21.968Z,101422.17
2018-09-16T15:17:50.200Z,101416.34
2018-09-16T15:20:18.448Z,101415.99
2018-09-16T15:22:46.704Z,101413.70
2018-09-16T15:25:14.957Z,101407.68
2018-09-16T15:27:43.189Z,101407.46
2018-09-16T15:30:11.472Z,101406.37
2018-09-16T15:32:39.712Z,101406.62
2018-09-16T15:35:08.010Z,101398.14
2018-09-16T15:37:36.267Z,101395.73
2018-09-16T15:40:04.540Z,101390.02
2018-09-16T15:42:32.780Z,101382.50
2018-09-16T15:45:01.062Z,101391.33
2018-09-16T15:47:29.296Z,101387.17
2018-09-16T15:49:57.558Z,101380.67
2018-09-16T15:52:25.809Z,101382.77
2018-09-16T15:54:54.117Z,101377.48
2018-09-16T15:57:22.362Z,101377.82
2018-09-16T15:59:50.665Z,101377.31
2018-09-16T16:02:18.886Z,101377.23
2018-09-16T16:04:47.165Z,101377.41
2018-09-16T16:07:15.396Z,101369.02
2018-09-16T16:09:44.000Z,101369.19
2018-09-16T16:12:12.253Z,101372.41
2018-09-16T16:14:40.493Z,101384.03
2018-09-16T16:17:08.766Z,101381.20
2018-09-16T16:19:37.009Z,101375.73
2018-09-16T16:22:05.261Z,101380.31
2018-09-16T16:24:33.617Z,101380.00
2018-09-16T16:27:01.898Z,101382.95
2018-09-16T16:29:30.130Z,101380.58
2018-09-16T16:31:58.407Z,101383.64
2018-09-16T16:34:26.724Z,101377.27
2018-09-16T16:36:54.929Z,101370.04
2018-09-16T16:39:23.158Z,101371.34
2018-09-16T16:41:51.485Z,101368.38
2018-09-16T16:44:19.704Z,101365.45
2018-09-16T16:46:47.956Z,101352.23
2018-09-16T16:49:16.221Z,101361.15
2018-09-16T16:51:44.481Z,101366.89
2018-09-16T16:54:13.886Z,101366.09
2018-09-16T16:56:42.164Z,101357.00
2018-09-16T16:59:10.412Z,101361.33
2018-09-16T17:01:38.677Z,101357.05
2018-09-16T17:04:06.913Z,101360.16
2018-09-16T17:06:35.192Z,101365.08
2018-09-16T17:09:03.620Z,101363.03
2018-09-16T17:11:31.865Z,101360.92
2018-09-16T17:14:00.117Z,101361.01
2018-09-16T17:16:28.377Z,101361.98
2018-09-16T17:18:56.673Z,101370.66
2018-09-16T17:21:24.908Z,101366.00
2018-09-16T17:23:53.277Z,101369.08
2018-09-16T17:26:21.854Z,101368.63
2018-09-16T17:28:50.213Z,101369.10
2018-09-16T17:31:18.505Z,101368.74
2018-09-16T17:33:46.760Z,101368.35
2018-09-16T17:36:14.978Z,101375.39
2018-09-16T17:38:43.361Z,101374.14
2018-09-16T17:41:11.637Z,101368.93
2018-09-16T17:43:40.033Z,101365.52
2018-09-16T17:46:08.694Z,101366.84
2018-09-16T17:48:37.028Z,101369.20
2018-09-16T17:51:05.460Z,101362.77
2018-09-16T17:53:33.773Z,101362.01
2018-09-16T17:56:02.205Z,101366.41
2018-09-16T17:58:30.469Z,101371.72
2018-09-16T18:00:58.753Z,101373.06
2018-09-16T18:03:27.047Z,101375.41
2018-09-16T18:05:56.235Z,101383.27
2018-09-16T18:08:30.037Z,101379.87
2018-09-16T18:10:58.412Z,101378.17
2018-09-16T18:13:26.783Z,101379.48
2018-09-16T18:15:55.158Z,101381.72
2018-09-16T18:18:23.465Z,101378.10
2018-09-16T18:20:51.821Z,101372.63
2018-09-16T18:23:20.163Z,101374.42
2018-09-16T18:25:48.408Z,101373.59
2018-09-16T18:28:16.720Z,101378.88
2018-09-16T18:30:45.013Z,101376.83
2018-09-16T18:33:13.265Z,101379.91
2018-09-16T18:35:42.368Z,101373.47
2018-09-16T18:38:10.674Z,101372.65
2018-09-16T18:40:38.928Z,101382.33
2018-09-16T18:43:07.270Z,101392.79
2018-09-16T18:45:35.565Z,101396.30
2018-09-16T18:48:03.845Z,101393.28
2018-09-16T18:50:32.440Z,101393.73
2018-09-16T18:53:00.676Z,101378.42
2018-09-16T18:55:28.993Z,101400.48
2018-09-16T18:57:57.289Z,101400.09
2018-09-16T19:00:25.817Z,101398.95
2018-09-16T19:02:54.240Z,101400.74
2018-09-16T19:05:22.502Z,101395.59
2018-09-16T19:07:51.205Z,101396.52
2018-09-16T19:10:19.816Z,101392.34
2018-09-16T19:12:48.108Z,101395.88
2018-09-16T19:15:16.453Z,101392.92
2018-09-16T19:17:44.748Z,101396.45
2018-09-16T19:20:13.029Z,101397.39
2018-09-16T19:22:41.312Z,101398.31
2018-09-16T19:25:09.650Z,101400.06
2018-09-16T19:27:38.633Z,101397.50
2018-09-16T19:30:07.207Z,101401.44
2018-09-16T19:32:35.506Z,101401.45
2018-09-16T19:35:04.088Z,101411.84
2018-09-16T19:37:32.339Z,101410.59
2018-09-16T19:40:00.612Z,101414.63
2018-09-16T19:42:28.889Z,101425.11
2018-09-16T19:44:57.153Z,101421.28
2018-09-16T19:47:26.399Z,101422.28
2018-09-16T19:49:54.640Z,101423.69
2018-09-16T19:52:22.995Z,101425.89
2018-09-16T19:54:51.308Z,101432.00
2018-09-16T19:57:19.537Z,101432.93
2018-09-16T19:59:47.806Z,101438.11
2018-09-16T20:02:16.066Z,101431.67
2018-09-16T20:04:44.401Z,101432.50
2018-09-16T20:07:13.057Z,101434.34
2018-09-16T20:09:41.450Z,101443.46
2018-09-16T20:12:09.857Z,101449.09
2018-09-16T20:14:38.092Z,101444.38
2018-09-16T20:17:06.313Z,101445.64
2018-09-16T20:19:34.657Z,101438.33
2018-09-16T20:22:02.878Z,101438.33
2018-09-16T20:24:31.117Z,101437.47
2018-09-16T20:26:59.355Z,101430.50
2018-09-16T20:29:27.609Z,101430.45
2018-09-16T20:31:55.919Z,101419.20
2018-09-16T20:34:24.173Z,101423.89
2018-09-16T20:36:52.441Z,101428.66
2018-09-16T20:39:20.674Z,101422.18
2018-09-16T20:41:49.011Z,101422.22
2018-09-16T20:44:17.572Z,101427.42
2018-09-16T20:46:45.852Z,101426.98
2018-09-16T20:49:14.241Z,101433.52
2018-09-16T20:51:42.468Z,101421.41
2018-09-16T20:54:10.865Z,101424.88
2018-09-16T20:56:39.363Z,101423.63
2018-09-16T20:59:07.788Z,101419.80
2018-09-16T21:01:36.125Z,101420.28
2018-09-16T21:04:05.329Z,101422.48
2018-09-16T21:06:33.544Z,101420.33
2018-09-16T21:09:01.803Z,101417.75
2018-09-16T21:11:30.037Z,101412.17
2018-09-16T21:13:58.326Z,101410.48
2018-09-16T21:16:26.557Z,101411.84
2018-09-16T21:18:54.792Z,101408.51
2018-09-16T21:21:23.902Z,101408.52
2018-09-16T21:23:52.898Z,101408.95
2018-09-16T21:26:21.330Z,101400.79
2018-09-16T21:28:49.809Z,101400.41
2018-09-16T21:31:18.040Z,101403.47
2018-09-16T21:33:46.248Z,101406.13
2018-09-16T21:36:14.486Z,101402.28
2018-09-16T21:38:42.735Z,101402.75
2018-09-16T21:41:10.974Z,101389.84
2018-09-16T21:43:39.177Z,101391.59
2018-09-16T21:46:07.426Z,101390.77
2018-09-16T21:48:35.645Z,101394.25
2018-09-16T21:51:03.887Z,101392.92
2018-09-16T21:53:32.097Z,101386.45
2018-09-16T21:56:00.332Z,101386.05
2018-09-16T21:58:28.537Z,101383.93
2018-09-16T22:00:56.804Z,101384.81
2018-09-16T22:03:25.948Z,101385.77
2018-09-16T22:05:54.865Z,101388.86
2018-09-16T22:08:23.108Z,101393.19
2018-09-16T22:10:51.349Z,101391.52
2018-09-16T22:13:19.628Z,101383.32
2018-09-16T22:15:47.992Z,101389.33
2018-09-16T22:18:16.229Z,101385.89
2018-09-16T22:20:44.485Z,101375.16
2018-09-16T22:23:12.683Z,101371.26
2018-09-16T22:25:40.921Z,101368.27
2018-09-16T22:28:09.141Z,101372.58
2018-09-16T22:30:37.404Z,101370.88
2018-09-16T22:33:05.640Z,101370.87
2018-09-16T22:35:33.906Z,101364.84
2018-09-16T22:38:02.144Z,101367.88
2018-09-16T22:40:30.348Z,101363.16
2018-09-16T22:42:58.580Z,101365.31
2018-09-16T22:45:26.800Z,101361.88
2018-09-16T22:47:55.032Z,101368.30
2018-09-16T22:50:23.237Z,101362.28
2018-09-16T22:52:51.456Z,101359.69
2018-09-16T22:55:19.657Z,101358.42
2018-09-16T22:57:47.920Z,101353.69
2018-09-16T23:00:17.726Z,101357.99
2018-09-16T23:02:45.972Z,101365.33
2018-09-16T23:05:14.208Z,101363.61
2018-09-16T23:07:42.965Z,101365.34
2018-09-16T23:10:11.173Z,101365.77
2018-09-16T23:12:39.716Z,101362.33
2018-09-16T23:15:07.947Z,101362.33
2018-09-16T23:17:36.172Z,101361.45
2018-09-16T23:20:04.424Z,101361.45
2018-09-16T23:22:32.652Z,101365.32
2018-09-16T23:25:00.869Z,101362.72
2018-09-16T23:27:29.097Z,101353.70
2018-09-16T23:29:57.325Z,101345.08
2018-09-16T23:32:25.556Z,101348.53
2018-09-16T23:34:53.796Z,101346.81
2018-09-16T23:37:22.053Z,101337.34
2018-09-16T23:39:50.284Z,101338.64
2018-09-16T23:42:18.496Z,101334.77
2018-09-16T23:44:46.729Z,101339.01
2018-09-16T23:47:14.941Z,101339.42
2018-09-16T23:49:43.179Z,101337.28
2018-09-16T23:52:11.389Z,101336.83
2018-09-16T23:54:39.640Z,101341.53
2018-09-16T23:57:07.857Z,101342.80
2018-09-16T23:59:36.108Z,101348.82
